sensor_id;sensor_type;location;lat;lon;timestamp;P1;durP1;ratioP1;P2;durP2;ratioP2
17741;SDS011;8993;51.822;-2.268;2022-12-07T00:02:56;26.26;;;12.29;;
17741;SDS011;8993;51.822;-2.268;2022-12-07T00:08:00;32.87;;;15.56;;
17741;SDS011;8993;51.822;-2.268;2022-12-07T00:13:04;30.65;;;15.17;;
17741;SDS011;8993;51.822;-2.268;2022-12-07T00:18:08;31.14;;;15.69;;
17741;SDS011;8993;51.822;-2.268;2022-12-07T00:23:13;34.86;;;17.04;;
17741;SDS011;8993;51.822;-2.268;2022-12-07T00:28:17;34.04;;;17.47;;
17741;SDS011;8993;51.822;-2.268;2022-12-07T00:33:24;36.11;;;17.12;;
17741;SDS011;8993;51.822;-2.268;2022-12-07T00:38:29;37.74;;;17.69;;
17741;SDS011;8993;51.822;-2.268;2022-12-07T00:43:32;31.53;;;15.36;;
17741;SDS011;8993;51.822;-2.268;2022-12-07T00:48:37;25.84;;;13.83;;
17741;SDS011;8993;51.822;-2.268;2022-12-07T00:53:41;27.43;;;14.17;;
17741;SDS011;8993;51.822;-2.268;2022-12-07T00:58:49;27.58;;;13.29;;
17741;SDS011;8993;51.822;-2.268;2022-12-07T01:03:49;28.01;;;13.85;;
17741;SDS011;8993;51.822;-2.268;2022-12-07T01:08:53;27.33;;;12.70;;
17741;SDS011;8993;51.822;-2.268;2022-12-07T01:13:58;35.47;;;16.69;;
17741;SDS011;8993;51.822;-2.268;2022-12-07T01:19:03;36.62;;;16.71;;
17741;SDS011;8993;51.822;-2.268;2022-12-07T01:24:08;40.60;;;17.52;;
17741;SDS011;8993;51.822;-2.268;2022-12-07T01:29:11;36.75;;;16.41;;
17741;SDS011;8993;51.822;-2.268;2022-12-07T01:34:16;32.77;;;15.78;;
17741;SDS011;8993;51.822;-2.268;2022-12-07T01:39:20;32.29;;;14.94;;
17741;SDS011;8993;51.822;-2.268;2022-12-07T01:44:25;28.30;;;14.21;;
17741;SDS011;8993;51.822;-2.268;2022-12-07T01:49:30;32.23;;;13.81;;
17741;SDS011;8993;51.822;-2.268;2022-12-07T01:54:33;38.10;;;13.84;;
17741;SDS011;8993;51.822;-2.268;2022-12-07T01:59:37;47.89;;;21.44;;
17741;SDS011;8993;51.822;-2.268;2022-12-07T02:04:41;49.93;;;22.57;;
17741;SDS011;8993;51.822;-2.268;2022-12-07T02:09:46;55.91;;;24.25;;
17741;SDS011;8993;51.822;-2.268;2022-12-07T02:14:51;58.27;;;24.25;;
17741;SDS011;8993;51.822;-2.268;2022-12-07T02:20:18;50.67;;;22.54;;
17741;SDS011;8993;51.822;-2.268;2022-12-07T02:25:01;49.17;;;21.17;;
17741;SDS011;8993;51.822;-2.268;2022-12-07T02:30:04;41.34;;;19.35;;
17741;SDS011;8993;51.822;-2.268;2022-12-07T02:35:09;47.53;;;20.59;;
17741;SDS011;8993;51.822;-2.268;2022-12-07T02:40:14;48.87;;;20.88;;
17741;SDS011;8993;51.822;-2.268;2022-12-07T02:45:17;49.39;;;21.08;;
17741;SDS011;8993;51.822;-2.268;2022-12-07T02:50:20;50.76;;;21.38;;
17741;SDS011;8993;51.822;-2.268;2022-12-07T02:55:26;55.80;;;22.19;;
17741;SDS011;8993;51.822;-2.268;2022-12-07T03:00:28;48.38;;;20.23;;
17741;SDS011;8993;51.822;-2.268;2022-12-07T03:05:37;46.55;;;19.04;;
17741;SDS011;8993;51.822;-2.268;2022-12-07T03:10:39;38.66;;;18.05;;
17741;SDS011;8993;51.822;-2.268;2022-12-07T03:15:43;44.05;;;17.65;;
17741;SDS011;8993;51.822;-2.268;2022-12-07T03:20:46;34.61;;;15.52;;
17741;SDS011;8993;51.822;-2.268;2022-12-07T03:25:52;34.55;;;15.60;;
17741;SDS011;8993;51.822;-2.268;2022-12-07T03:30:55;31.93;;;13.81;;
17741;SDS011;8993;51.822;-2.268;2022-12-07T03:36:00;30.01;;;12.47;;
17741;SDS011;8993;51.822;-2.268;2022-12-07T03:41:04;25.11;;;11.51;;
17741;SDS011;8993;51.822;-2.268;2022-12-07T03:46:08;29.11;;;11.71;;
17741;SDS011;8993;51.822;-2.268;2022-12-07T03:51:13;29.43;;;12.34;;
17741;SDS011;8993;51.822;-2.268;2022-12-07T03:56:15;32.79;;;13.29;;
17741;SDS011;8993;51.822;-2.268;2022-12-07T04:01:19;26.47;;;12.42;;
17741;SDS011;8993;51.822;-2.268;2022-12-07T04:06:23;27.21;;;11.37;;
17741;SDS011;8993;51.822;-2.268;2022-12-07T04:11:27;22.02;;;11.09;;
17741;SDS011;8993;51.822;-2.268;2022-12-07T04:16:31;28.67;;;11.72;;
17741;SDS011;8993;51.822;-2.268;2022-12-07T04:21:36;37.89;;;13.64;;
17741;SDS011;8993;51.822;-2.268;2022-12-07T04:26:40;73.85;;;17.09;;
17741;SDS011;8993;51.822;-2.268;2022-12-07T04:31:44;63.48;;;17.65;;
17741;SDS011;8993;51.822;-2.268;2022-12-07T04:36:48;40.16;;;13.64;;
17741;SDS011;8993;51.822;-2.268;2022-12-07T04:41:52;32.71;;;11.42;;
17741;SDS011;8993;51.822;-2.268;2022-12-07T04:46:56;36.79;;;12.02;;
17741;SDS011;8993;51.822;-2.268;2022-12-07T04:52:00;26.62;;;10.63;;
17741;SDS011;8993;51.822;-2.268;2022-12-07T04:57:05;24.94;;;10.01;;
17741;SDS011;8993;51.822;-2.268;2022-12-07T05:02:08;25.39;;;10.13;;
17741;SDS011;8993;51.822;-2.268;2022-12-07T05:07:12;27.53;;;10.76;;
17741;SDS011;8993;51.822;-2.268;2022-12-07T05:12:16;34.41;;;11.79;;
17741;SDS011;8993;51.822;-2.268;2022-12-07T05:17:20;39.09;;;12.82;;
17741;SDS011;8993;51.822;-2.268;2022-12-07T05:22:25;34.67;;;11.71;;
17741;SDS011;8993;51.822;-2.268;2022-12-07T05:27:30;34.06;;;11.74;;
17741;SDS011;8993;51.822;-2.268;2022-12-07T05:32:33;32.89;;;11.59;;
17741;SDS011;8993;51.822;-2.268;2022-12-07T05:37:37;37.21;;;13.51;;
17741;SDS011;8993;51.822;-2.268;2022-12-07T05:42:42;33.46;;;12.47;;
17741;SDS011;8993;51.822;-2.268;2022-12-07T05:47:45;29.94;;;11.81;;
17741;SDS011;8993;51.822;-2.268;2022-12-07T05:52:50;34.15;;;13.28;;
17741;SDS011;8993;51.822;-2.268;2022-12-07T05:57:54;31.66;;;12.56;;
17741;SDS011;8993;51.822;-2.268;2022-12-07T06:02:58;33.35;;;13.11;;
17741;SDS011;8993;51.822;-2.268;2022-12-07T06:08:03;41.38;;;15.08;;
17741;SDS011;8993;51.822;-2.268;2022-12-07T06:13:06;54.37;;;18.30;;
17741;SDS011;8993;51.822;-2.268;2022-12-07T06:18:11;35.69;;;14.66;;
17741;SDS011;8993;51.822;-2.268;2022-12-07T06:23:15;41.46;;;17.33;;
17741;SDS011;8993;51.822;-2.268;2022-12-07T06:28:20;34.33;;;14.66;;
17741;SDS011;8993;51.822;-2.268;2022-12-07T06:33:24;31.30;;;14.56;;
17741;SDS011;8993;51.822;-2.268;2022-12-07T06:38:28;27.81;;;13.72;;
17741;SDS011;8993;51.822;-2.268;2022-12-07T06:43:33;22.72;;;11.72;;
17741;SDS011;8993;51.822;-2.268;2022-12-07T06:48:37;23.48;;;11.70;;
17741;SDS011;8993;51.822;-2.268;2022-12-07T06:53:41;27.25;;;12.59;;
17741;SDS011;8993;51.822;-2.268;2022-12-07T06:58:45;27.17;;;12.74;;
17741;SDS011;8993;51.822;-2.268;2022-12-07T07:03:49;27.83;;;12.07;;
17741;SDS011;8993;51.822;-2.268;2022-12-07T07:08:53;25.02;;;12.37;;
17741;SDS011;8993;51.822;-2.268;2022-12-07T07:13:57;29.61;;;14.00;;
17741;SDS011;8993;51.822;-2.268;2022-12-07T07:19:02;25.16;;;12.86;;
17741;SDS011;8993;51.822;-2.268;2022-12-07T07:24:06;30.07;;;14.46;;
17741;SDS011;8993;51.822;-2.268;2022-12-07T07:29:10;29.57;;;14.46;;
17741;SDS011;8993;51.822;-2.268;2022-12-07T07:34:14;28.67;;;14.40;;
17741;SDS011;8993;51.822;-2.268;2022-12-07T07:39:18;37.17;;;16.45;;
17741;SDS011;8993;51.822;-2.268;2022-12-07T07:44:22;37.99;;;17.84;;
17741;SDS011;8993;51.822;-2.268;2022-12-07T07:49:26;44.46;;;19.04;;
17741;SDS011;8993;51.822;-2.268;2022-12-07T07:54:31;39.15;;;17.43;;
17741;SDS011;8993;51.822;-2.268;2022-12-07T07:59:35;37.63;;;17.13;;
17741;SDS011;8993;51.822;-2.268;2022-12-07T08:04:39;36.36;;;17.01;;
17741;SDS011;8993;51.822;-2.268;2022-12-07T08:09:43;31.89;;;14.93;;
17741;SDS011;8993;51.822;-2.268;2022-12-07T08:14:47;29.04;;;14.42;;
17741;SDS011;8993;51.822;-2.268;2022-12-07T08:19:53;29.32;;;13.81;;
17741;SDS011;8993;51.822;-2.268;2022-12-07T08:24:55;23.37;;;11.85;;
17741;SDS011;8993;51.822;-2.268;2022-12-07T08:30:01;27.02;;;12.35;;
17741;SDS011;8993;51.822;-2.268;2022-12-07T08:35:05;29.16;;;14.32;;
17741;SDS011;8993;51.822;-2.268;2022-12-07T08:40:10;38.25;;;17.17;;
17741;SDS011;8993;51.822;-2.268;2022-12-07T08:45:18;38.29;;;17.43;;
17741;SDS011;8993;51.822;-2.268;2022-12-07T08:50:22;38.75;;;16.93;;
17741;SDS011;8993;51.822;-2.268;2022-12-07T08:55:27;46.42;;;18.89;;
17741;SDS011;8993;51.822;-2.268;2022-12-07T09:00:32;37.43;;;17.49;;
17741;SDS011;8993;51.822;-2.268;2022-12-07T09:05:36;36.18;;;16.12;;
17741;SDS011;8993;51.822;-2.268;2022-12-07T09:10:40;38.69;;;16.14;;
17741;SDS011;8993;51.822;-2.268;2022-12-07T09:15:44;33.11;;;14.92;;
17741;SDS011;8993;51.822;-2.268;2022-12-07T09:20:48;34.03;;;15.27;;
17741;SDS011;8993;51.822;-2.268;2022-12-07T09:25:52;32.82;;;14.58;;
17741;SDS011;8993;51.822;-2.268;2022-12-07T09:30:57;47.40;;;20.00;;
17741;SDS011;8993;51.822;-2.268;2022-12-07T09:36:00;53.99;;;23.00;;
17741;SDS011;8993;51.822;-2.268;2022-12-07T09:41:05;50.65;;;23.27;;
17741;SDS011;8993;51.822;-2.268;2022-12-07T09:46:09;52.59;;;22.44;;
17741;SDS011;8993;51.822;-2.268;2022-12-07T09:51:13;45.89;;;20.58;;
17741;SDS011;8993;51.822;-2.268;2022-12-07T09:56:17;205.51;;;58.77;;
17741;SDS011;8993;51.822;-2.268;2022-12-07T10:01:21;237.03;;;63.84;;
17741;SDS011;8993;51.822;-2.268;2022-12-07T10:06:25;122.85;;;40.28;;
17741;SDS011;8993;51.822;-2.268;2022-12-07T10:11:30;77.66;;;31.25;;
17741;SDS011;8993;51.822;-2.268;2022-12-07T10:16:37;106.23;;;39.91;;
17741;SDS011;8993;51.822;-2.268;2022-12-07T10:21:38;67.16;;;29.33;;
17741;SDS011;8993;51.822;-2.268;2022-12-07T10:26:47;69.22;;;28.79;;
17741;SDS011;8993;51.822;-2.268;2022-12-07T10:31:49;63.00;;;26.77;;
17741;SDS011;8993;51.822;-2.268;2022-12-07T10:36:51;57.97;;;25.51;;
17741;SDS011;8993;51.822;-2.268;2022-12-07T10:41:56;56.99;;;21.98;;
17741;SDS011;8993;51.822;-2.268;2022-12-07T10:47:04;57.08;;;23.31;;
17741;SDS011;8993;51.822;-2.268;2022-12-07T10:52:05;54.46;;;22.31;;
17741;SDS011;8993;51.822;-2.268;2022-12-07T10:57:11;49.84;;;21.16;;
17741;SDS011;8993;51.822;-2.268;2022-12-07T11:02:17;50.57;;;20.37;;
17741;SDS011;8993;51.822;-2.268;2022-12-07T11:07:18;46.78;;;19.28;;
17741;SDS011;8993;51.822;-2.268;2022-12-07T11:12:22;32.35;;;15.17;;
17741;SDS011;8993;51.822;-2.268;2022-12-07T11:17:26;32.27;;;13.63;;
17741;SDS011;8993;51.822;-2.268;2022-12-07T11:22:29;36.54;;;15.51;;
17741;SDS011;8993;51.822;-2.268;2022-12-07T11:27:34;34.11;;;14.74;;
17741;SDS011;8993;51.822;-2.268;2022-12-07T11:32:41;31.00;;;11.87;;
17741;SDS011;8993;51.822;-2.268;2022-12-07T11:37:40;28.03;;;11.13;;
17741;SDS011;8993;51.822;-2.268;2022-12-07T11:42:46;27.68;;;11.57;;
17741;SDS011;8993;51.822;-2.268;2022-12-07T11:47:51;21.36;;;8.55;;
17741;SDS011;8993;51.822;-2.268;2022-12-07T11:52:54;22.40;;;7.39;;
17741;SDS011;8993;51.822;-2.268;2022-12-07T11:58:00;19.83;;;6.78;;
17741;SDS011;8993;51.822;-2.268;2022-12-07T12:03:03;19.03;;;6.85;;
17741;SDS011;8993;51.822;-2.268;2022-12-07T12:08:11;20.17;;;6.46;;
17741;SDS011;8993;51.822;-2.268;2022-12-07T12:13:17;18.23;;;6.41;;
17741;SDS011;8993;51.822;-2.268;2022-12-07T12:18:25;20.25;;;7.17;;
17741;SDS011;8993;51.822;-2.268;2022-12-07T12:23:19;21.23;;;6.92;;
17741;SDS011;8993;51.822;-2.268;2022-12-07T12:28:24;19.80;;;7.38;;
17741;SDS011;8993;51.822;-2.268;2022-12-07T12:33:28;22.02;;;7.15;;
17741;SDS011;8993;51.822;-2.268;2022-12-07T12:38:32;18.72;;;7.08;;
17741;SDS011;8993;51.822;-2.268;2022-12-07T12:43:39;17.35;;;5.54;;
17741;SDS011;8993;51.822;-2.268;2022-12-07T12:48:40;20.60;;;5.73;;
17741;SDS011;8993;51.822;-2.268;2022-12-07T12:53:44;16.71;;;5.65;;
17741;SDS011;8993;51.822;-2.268;2022-12-07T12:58:48;13.54;;;4.95;;
17741;SDS011;8993;51.822;-2.268;2022-12-07T13:03:52;14.13;;;4.50;;
17741;SDS011;8993;51.822;-2.268;2022-12-07T13:08:57;13.76;;;4.61;;
17741;SDS011;8993;51.822;-2.268;2022-12-07T13:15:03;14.08;;;4.74;;
17741;SDS011;8993;51.822;-2.268;2022-12-07T13:19:27;15.17;;;4.07;;
17741;SDS011;8993;51.822;-2.268;2022-12-07T13:24:09;15.89;;;4.36;;
17741;SDS011;8993;51.822;-2.268;2022-12-07T13:29:14;12.22;;;3.69;;
17741;SDS011;8993;51.822;-2.268;2022-12-07T13:34:32;13.28;;;3.90;;
17741;SDS011;8993;51.822;-2.268;2022-12-07T13:39:21;13.72;;;3.90;;
17741;SDS011;8993;51.822;-2.268;2022-12-07T13:44:25;14.53;;;4.00;;
17741;SDS011;8993;51.822;-2.268;2022-12-07T13:49:30;13.87;;;4.02;;
17741;SDS011;8993;51.822;-2.268;2022-12-07T13:54:33;13.22;;;3.97;;
17741;SDS011;8993;51.822;-2.268;2022-12-07T13:59:37;11.69;;;3.71;;
17741;SDS011;8993;51.822;-2.268;2022-12-07T14:04:41;13.92;;;3.68;;
17741;SDS011;8993;51.822;-2.268;2022-12-07T14:09:53;16.88;;;4.12;;
17741;SDS011;8993;51.822;-2.268;2022-12-07T14:14:50;10.20;;;3.50;;
17741;SDS011;8993;51.822;-2.268;2022-12-07T14:19:54;12.63;;;3.99;;
17741;SDS011;8993;51.822;-2.268;2022-12-07T14:24:59;12.67;;;3.89;;
17741;SDS011;8993;51.822;-2.268;2022-12-07T14:30:02;10.28;;;3.33;;
17741;SDS011;8993;51.822;-2.268;2022-12-07T14:35:09;13.11;;;3.63;;
17741;SDS011;8993;51.822;-2.268;2022-12-07T14:40:12;13.18;;;3.22;;
17741;SDS011;8993;51.822;-2.268;2022-12-07T14:45:16;15.82;;;3.23;;
17741;SDS011;8993;51.822;-2.268;2022-12-07T14:50:20;10.08;;;2.99;;
17741;SDS011;8993;51.822;-2.268;2022-12-07T14:55:25;13.07;;;3.14;;
17741;SDS011;8993;51.822;-2.268;2022-12-07T15:00:29;9.34;;;2.51;;
17741;SDS011;8993;51.822;-2.268;2022-12-07T15:05:32;9.42;;;2.68;;
17741;SDS011;8993;51.822;-2.268;2022-12-07T15:10:37;9.86;;;2.21;;
17741;SDS011;8993;51.822;-2.268;2022-12-07T15:15:41;8.85;;;2.36;;
17741;SDS011;8993;51.822;-2.268;2022-12-07T15:20:45;12.79;;;2.48;;
17741;SDS011;8993;51.822;-2.268;2022-12-07T15:25:49;10.87;;;2.66;;
17741;SDS011;8993;51.822;-2.268;2022-12-07T15:36:04;9.73;;;2.84;;
17741;SDS011;8993;51.822;-2.268;2022-12-07T15:41:11;8.39;;;2.59;;
17741;SDS011;8993;51.822;-2.268;2022-12-07T15:46:15;9.06;;;2.69;;
17741;SDS011;8993;51.822;-2.268;2022-12-07T15:51:20;6.04;;;2.21;;
17741;SDS011;8993;51.822;-2.268;2022-12-07T15:56:24;9.19;;;2.19;;
17741;SDS011;8993;51.822;-2.268;2022-12-07T16:01:28;7.14;;;2.13;;
17741;SDS011;8993;51.822;-2.268;2022-12-07T16:06:32;8.30;;;2.46;;
17741;SDS011;8993;51.822;-2.268;2022-12-07T16:11:37;6.87;;;2.37;;
17741;SDS011;8993;51.822;-2.268;2022-12-07T16:16:42;9.51;;;2.49;;
17741;SDS011;8993;51.822;-2.268;2022-12-07T16:21:46;16.34;;;4.55;;
17741;SDS011;8993;51.822;-2.268;2022-12-07T16:26:50;16.02;;;5.24;;
17741;SDS011;8993;51.822;-2.268;2022-12-07T16:31:55;11.43;;;4.07;;
17741;SDS011;8993;51.822;-2.268;2022-12-07T16:36:59;7.31;;;3.24;;
17741;SDS011;8993;51.822;-2.268;2022-12-07T16:42:04;8.83;;;3.08;;
17741;SDS011;8993;51.822;-2.268;2022-12-07T16:47:08;11.05;;;3.64;;
17741;SDS011;8993;51.822;-2.268;2022-12-07T16:52:12;7.15;;;3.29;;
17741;SDS011;8993;51.822;-2.268;2022-12-07T16:57:16;9.14;;;3.37;;
17741;SDS011;8993;51.822;-2.268;2022-12-07T17:02:22;8.88;;;3.33;;
17741;SDS011;8993;51.822;-2.268;2022-12-07T17:07:27;10.67;;;3.34;;
17741;SDS011;8993;51.822;-2.268;2022-12-07T17:12:31;10.07;;;3.46;;
17741;SDS011;8993;51.822;-2.268;2022-12-07T17:17:35;9.71;;;3.90;;
17741;SDS011;8993;51.822;-2.268;2022-12-07T17:22:39;17.44;;;6.39;;
17741;SDS011;8993;51.822;-2.268;2022-12-07T17:27:44;22.31;;;9.33;;
17741;SDS011;8993;51.822;-2.268;2022-12-07T17:32:50;17.66;;;7.35;;
17741;SDS011;8993;51.822;-2.268;2022-12-07T17:37:52;26.67;;;11.74;;
17741;SDS011;8993;51.822;-2.268;2022-12-07T17:42:56;23.20;;;9.53;;
17741;SDS011;8993;51.822;-2.268;2022-12-07T17:48:00;14.12;;;5.97;;
17741;SDS011;8993;51.822;-2.268;2022-12-07T17:53:04;13.96;;;5.64;;
17741;SDS011;8993;51.822;-2.268;2022-12-07T17:58:08;16.64;;;6.24;;
17741;SDS011;8993;51.822;-2.268;2022-12-07T18:03:13;14.94;;;6.67;;
17741;SDS011;8993;51.822;-2.268;2022-12-07T18:08:17;20.05;;;7.43;;
17741;SDS011;8993;51.822;-2.268;2022-12-07T18:13:21;18.78;;;7.97;;
17741;SDS011;8993;51.822;-2.268;2022-12-07T18:18:25;19.46;;;8.18;;
17741;SDS011;8993;51.822;-2.268;2022-12-07T18:23:29;19.39;;;8.16;;
17741;SDS011;8993;51.822;-2.268;2022-12-07T18:28:33;17.34;;;6.74;;
17741;SDS011;8993;51.822;-2.268;2022-12-07T18:33:38;16.77;;;6.20;;
17741;SDS011;8993;51.822;-2.268;2022-12-07T18:38:42;16.48;;;6.71;;
17741;SDS011;8993;51.822;-2.268;2022-12-07T18:43:47;17.00;;;7.01;;
17741;SDS011;8993;51.822;-2.268;2022-12-07T18:48:51;18.36;;;7.19;;
17741;SDS011;8993;51.822;-2.268;2022-12-07T18:53:55;15.54;;;6.83;;
17741;SDS011;8993;51.822;-2.268;2022-12-07T18:59:00;17.06;;;7.19;;
17741;SDS011;8993;51.822;-2.268;2022-12-07T19:04:04;16.04;;;6.79;;
17741;SDS011;8993;51.822;-2.268;2022-12-07T19:09:08;19.00;;;8.38;;
17741;SDS011;8993;51.822;-2.268;2022-12-07T19:14:14;22.84;;;8.36;;
17741;SDS011;8993;51.822;-2.268;2022-12-07T19:19:20;17.86;;;7.69;;
17741;SDS011;8993;51.822;-2.268;2022-12-07T19:24:23;15.65;;;6.95;;
17741;SDS011;8993;51.822;-2.268;2022-12-07T19:29:27;17.35;;;7.50;;
17741;SDS011;8993;51.822;-2.268;2022-12-07T19:34:31;23.11;;;9.14;;
17741;SDS011;8993;51.822;-2.268;2022-12-07T19:39:35;20.51;;;8.24;;
17741;SDS011;8993;51.822;-2.268;2022-12-07T19:44:41;16.97;;;7.88;;
17741;SDS011;8993;51.822;-2.268;2022-12-07T19:49:45;17.51;;;7.88;;
17741;SDS011;8993;51.822;-2.268;2022-12-07T19:54:49;16.43;;;7.81;;
17741;SDS011;8993;51.822;-2.268;2022-12-07T20:05:03;21.51;;;9.01;;
17741;SDS011;8993;51.822;-2.268;2022-12-07T20:10:10;18.72;;;8.43;;
17741;SDS011;8993;51.822;-2.268;2022-12-07T20:15:14;21.98;;;9.73;;
17741;SDS011;8993;51.822;-2.268;2022-12-07T20:20:18;24.08;;;10.14;;
17741;SDS011;8993;51.822;-2.268;2022-12-07T20:25:22;20.74;;;8.81;;
17741;SDS011;8993;51.822;-2.268;2022-12-07T20:30:26;20.34;;;9.09;;
17741;SDS011;8993;51.822;-2.268;2022-12-07T20:35:30;18.03;;;8.87;;
17741;SDS011;8993;51.822;-2.268;2022-12-07T20:40:35;17.81;;;8.52;;
17741;SDS011;8993;51.822;-2.268;2022-12-07T20:45:42;25.06;;;10.63;;
17741;SDS011;8993;51.822;-2.268;2022-12-07T20:50:44;21.28;;;10.19;;
17741;SDS011;8993;51.822;-2.268;2022-12-07T20:55:48;24.34;;;11.26;;
17741;SDS011;8993;51.822;-2.268;2022-12-07T21:00:58;32.75;;;14.59;;
17741;SDS011;8993;51.822;-2.268;2022-12-07T21:06:00;28.35;;;12.46;;
17741;SDS011;8993;51.822;-2.268;2022-12-07T21:11:05;23.79;;;11.27;;
17741;SDS011;8993;51.822;-2.268;2022-12-07T21:16:07;25.97;;;11.12;;
17741;SDS011;8993;51.822;-2.268;2022-12-07T21:21:11;28.52;;;11.96;;
17741;SDS011;8993;51.822;-2.268;2022-12-07T21:26:15;25.47;;;11.04;;
17741;SDS011;8993;51.822;-2.268;2022-12-07T21:31:20;33.36;;;13.49;;
17741;SDS011;8993;51.822;-2.268;2022-12-07T21:36:25;30.53;;;12.07;;
17741;SDS011;8993;51.822;-2.268;2022-12-07T21:41:30;28.67;;;12.19;;
17741;SDS011;8993;51.822;-2.268;2022-12-07T21:46:33;30.43;;;12.59;;
17741;SDS011;8993;51.822;-2.268;2022-12-07T21:51:38;27.00;;;12.21;;
17741;SDS011;8993;51.822;-2.268;2022-12-07T21:56:41;28.61;;;12.19;;
17741;SDS011;8993;51.822;-2.268;2022-12-07T22:01:53;29.04;;;12.21;;
17741;SDS011;8993;51.822;-2.268;2022-12-07T22:07:02;25.30;;;10.86;;
17741;SDS011;8993;51.822;-2.268;2022-12-07T22:11:52;24.52;;;10.81;;
17741;SDS011;8993;51.822;-2.268;2022-12-07T22:16:57;32.06;;;14.50;;
17741;SDS011;8993;51.822;-2.268;2022-12-07T22:22:02;27.69;;;11.05;;
17741;SDS011;8993;51.822;-2.268;2022-12-07T22:27:06;22.23;;;9.78;;
17741;SDS011;8993;51.822;-2.268;2022-12-07T22:32:10;25.07;;;9.71;;
17741;SDS011;8993;51.822;-2.268;2022-12-07T22:37:14;21.96;;;9.43;;
17741;SDS011;8993;51.822;-2.268;2022-12-07T22:42:20;23.19;;;9.64;;
17741;SDS011;8993;51.822;-2.268;2022-12-07T22:47:24;18.92;;;8.80;;
17741;SDS011;8993;51.822;-2.268;2022-12-07T22:52:28;21.77;;;9.42;;
17741;SDS011;8993;51.822;-2.268;2022-12-07T22:57:32;21.56;;;9.31;;
17741;SDS011;8993;51.822;-2.268;2022-12-07T23:02:37;26.12;;;9.26;;
17741;SDS011;8993;51.822;-2.268;2022-12-07T23:07:42;23.08;;;9.14;;
17741;SDS011;8993;51.822;-2.268;2022-12-07T23:12:46;23.69;;;9.09;;
17741;SDS011;8993;51.822;-2.268;2022-12-07T23:17:50;23.01;;;8.76;;
17741;SDS011;8993;51.822;-2.268;2022-12-07T23:22:54;22.47;;;8.96;;
17741;SDS011;8993;51.822;-2.268;2022-12-07T23:27:58;22.80;;;9.04;;
17741;SDS011;8993;51.822;-2.268;2022-12-07T23:33:03;21.14;;;8.25;;
17741;SDS011;8993;51.822;-2.268;2022-12-07T23:38:07;20.92;;;8.08;;
17741;SDS011;8993;51.822;-2.268;2022-12-07T23:43:11;17.13;;;7.18;;
17741;SDS011;8993;51.822;-2.268;2022-12-07T23:48:15;16.08;;;7.63;;
17741;SDS011;8993;51.822;-2.268;2022-12-07T23:53:19;15.45;;;7.16;;
17741;SDS011;8993;51.822;-2.268;2022-12-07T23:58:23;17.45;;;7.49;;
